KMMT/MMT METAR and TAF weather

Enter ICAO airport designator
Station Type Date Time Source
KMMT METAR 2019/08/19 06:56 UTC NOAA

KMMT 190656Z AUTO 00000KT 10SM CLR 23/23 A3004 RMK AO2 SLP173 T02320232 $


Station Type Date Time Source
KMMT Decoded METAR 2019/08/19 06:56 UTC NOAA

Station name not available
Aug 19, 2019 - 02:56 AM EDT / 2019.08.19 0656 UTC
Wind: Calm:0
Visibility: 10 mile(s):0
Sky conditions: clear
Temperature: 73.8 F (23.2 C)
Dew Point: 73.8 F (23.2 C)
Relative Humidity: 100%
Pressure (altimeter): 30.04 in. Hg (1017 hPa)
ob: KMMT 190656Z AUTO 00000KT 10SM CLR 23/23 A3004 RMK AO2 SLP173 T02320232
cycle: 7

Station Type Date Time Source
KMMT TAF 2019/08/19 07:06 UTC NOAA

TAF KMMT 190700Z 1907/2013 19006KT 9999 FEW250 QNH3003INS
BECMG 1908/1909 19006KT 4800 BR BKN003 QNH3002INS
TEMPO 1909/1913 0800 FG
BECMG 1917/1918 14009KT 9999 NSW FEW040 SCT060 QNH3001INS
BECMG 1922/1923 16006KT 9000 -SHRA SCT030 BKN050 QNH3001INS
TEMPO 1922/1923 VRB25G35KT 9000 -TSRA SCT030 BKN040CB
BECMG 1923/1924 18006KT 9999 NSW SCT030 BKN080 QNH3003INS TX33/1919Z TN23/1911Z

Example: see airport list